Time;durP1;ratioP1;P1;durP2;ratioP2;P2;SDS_P1;SDS_P2;PMS_P1;PMS_P2;Temp;Humidity;BMP_temperature;BMP_pressure;BME280_temperature;BME280_humidity;BME280_pressure;Samples;Min_cycle;Max_cycle;Signal;HPM_P1;HPM_P2
2021/05/30 00:01:44;;;;;;;5.47;3.80;;;;;;;15.66;61.93;98893.81;1716787;82;21035;-60
2021/05/30 00:04:11;;;;;;;7.37;3.87;;;;;;;15.68;62.00;98890.39;1717466;82;21057;-56
2021/05/30 00:06:37;;;;;;;8.65;4.42;;;;;;;15.67;62.13;98892.75;1715415;82;20940;-59
2021/05/30 00:09:05;;;;;;;9.28;4.90;;;;;;;15.67;61.91;98884.71;1717686;82;21547;-57
2021/05/30 00:11:35;;;;;;;8.65;4.47;;;;;;;15.65;61.94;98882.77;1697169;82;20999;-59
2021/05/30 00:14:04;;;;;;;5.75;4.42;;;;;;;15.66;61.93;98883.09;1717174;82;21022;-59
2021/05/30 00:16:34;;;;;;;8.08;4.97;;;;;;;15.64;62.03;98881.15;1715490;82;21109;-58
2021/05/30 00:19:01;;;;;;;4.67;4.00;;;;;;;15.65;62.08;98877.41;1717438;82;20881;-61
2021/05/30 00:21:27;;;;;;;6.45;4.10;;;;;;;15.67;62.00;98872.64;1717618;82;21011;-59
2021/05/30 00:23:58;;;;;;;5.03;3.80;;;;;;;15.67;62.04;98875.87;1717460;82;20999;-58
2021/05/30 00:26:24;;;;;;;8.70;3.98;;;;;;;15.67;62.05;98875.33;1715466;82;21035;-58
2021/05/30 00:28:51;;;;;;;5.62;3.80;;;;;;;15.68;61.97;98875.64;1717592;82;21066;-59
2021/05/30 00:31:18;;;;;;;3.33;2.58;;;;;;;15.68;62.03;98880.17;1692909;83;21648;-60
2021/05/30 00:33:46;;;;;;;3.83;2.95;;;;;;;15.69;61.95;98875.13;1710359;82;21639;-58
2021/05/30 00:36:13;;;;;;;5.97;3.55;;;;;;;15.62;61.95;98877.84;1715530;82;20987;-60
2021/05/30 00:38:39;;;;;;;6.45;3.52;;;;;;;15.57;62.12;98872.81;1717545;82;20968;-59
2021/05/30 00:41:06;;;;;;;3.55;2.55;;;;;;;15.55;62.18;98872.22;1717601;83;21528;-58
2021/05/30 00:43:48;;;;;;;4.55;2.90;;;;;;;15.55;62.29;98877.07;1711704;83;20893;-59
2021/05/30 00:46:15;;;;;;;3.77;3.25;;;;;;;15.50;62.38;98870.70;1695596;82;21582;-59
2021/05/30 00:48:41;;;;;;;4.22;3.10;;;;;;;15.43;62.57;98868.05;1708892;82;20983;-60
2021/05/30 00:51:08;;;;;;;5.30;3.20;;;;;;;15.43;62.62;98866.72;1697618;83;21015;-59
2021/05/30 00:53:36;;;;;;;4.10;2.90;;;;;;;15.43;62.73;98864.03;1717558;83;21111;-58
2021/05/30 00:56:05;;;;;;;4.33;3.22;;;;;;;15.47;62.71;98864.44;1717018;83;20992;-57
2021/05/30 00:58:32;;;;;;;3.37;3.08;;;;;;;15.44;62.72;98862.47;1716802;82;20964;-58
2021/05/30 01:01:00;;;;;;;3.92;3.15;;;;;;;15.46;62.82;98862.27;1717378;83;20995;-59
2021/05/30 01:03:26;;;;;;;5.25;3.85;;;;;;;15.41;62.85;98863.41;1717694;83;21601;-58
2021/05/30 01:05:53;;;;;;;4.42;3.08;;;;;;;15.33;63.01;98867.67;1717311;82;21088;-60
2021/05/30 01:08:26;;;;;;;5.00;3.27;;;;;;;15.30;63.13;98862.77;1715444;82;21008;-58
2021/05/30 01:10:48;;;;;;;3.67;3.37;;;;;;;15.29;63.23;98868.64;1716752;82;21075;-59
2021/05/30 01:13:17;;;;;;;5.47;2.90;;;;;;;15.27;63.27;98859.17;1717566;83;21040;-61
2021/05/30 01:15:43;;;;;;;3.45;2.85;;;;;;;15.14;63.45;98856.58;1717555;82;20928;-61
2021/05/30 01:18:09;;;;;;;3.33;2.60;;;;;;;15.05;63.73;98864.53;1715083;82;21826;-58
2021/05/30 01:20:39;;;;;;;3.08;2.80;;;;;;;15.04;63.86;98866.93;1717453;82;21019;-58
2021/05/30 01:23:07;;;;;;;3.10;2.35;;;;;;;15.03;64.03;98862.59;1717579;82;21556;-58
2021/05/30 01:25:33;;;;;;;3.72;2.90;;;;;;;14.98;64.10;98861.08;1717629;82;21719;-60
2021/05/30 01:28:01;;;;;;;6.10;3.50;;;;;;;14.92;64.33;98868.09;1715520;82;20914;-59
2021/05/30 01:30:28;;;;;;;2.62;2.42;;;;;;;14.91;64.60;98861.63;1708779;82;21094;-58
2021/05/30 01:32:55;;;;;;;3.85;2.55;;;;;;;14.92;64.60;98861.41;1694940;82;21035;-58
2021/05/30 01:35:21;;;;;;;2.75;2.55;;;;;;;14.90;64.51;98858.13;1717675;83;20913;-58
2021/05/30 01:37:49;;;;;;;4.10;2.50;;;;;;;14.85;64.70;98855.27;1715423;83;21577;-60
2021/05/30 01:40:15;;;;;;;4.22;1.87;;;;;;;14.93;64.76;98858.22;1717456;82;21095;-58
2021/05/30 01:42:42;;;;;;;2.70;2.10;;;;;;;14.90;64.72;98853.28;1717449;82;21513;-60
2021/05/30 01:45:11;;;;;;;2.02;1.92;;;;;;;14.90;64.85;98858.64;1717364;82;21621;-58
2021/05/30 01:47:40;;;;;;;2.40;2.10;;;;;;;14.97;64.76;98854.89;1698954;82;20932;-60
2021/05/30 01:50:11;;;;;;;2.72;2.20;;;;;;;15.00;64.73;98852.30;1717568;82;20964;-58
2021/05/30 01:52:38;;;;;;;6.25;2.55;;;;;;;15.01;64.70;98860.66;1717154;82;20983;-59
2021/05/30 01:55:08;;;;;;;1.75;1.62;;;;;;;15.04;64.67;98857.55;1717264;82;20972;-58
2021/05/30 01:57:44;;;;;;;2.83;1.82;;;;;;;15.11;64.56;98859.16;1713081;82;20964;-57
2021/05/30 02:00:11;;;;;;;1.85;1.75;;;;;;;15.15;64.42;98855.00;1701744;82;21004;-56
2021/05/30 02:02:38;;;;;;;2.05;1.90;;;;;;;15.18;64.31;98861.79;1698472;82;21078;-58
2021/05/30 02:05:06;;;;;;;1.62;1.52;;;;;;;15.17;64.20;98859.63;1694187;82;20987;-60
2021/05/30 02:07:34;;;;;;;1.92;1.57;;;;;;;15.03;64.32;98862.59;1697177;82;21067;-57
2021/05/30 02:10:03;;;;;;;2.62;1.65;;;;;;;14.87;64.80;98857.72;1693776;83;20995;-57
2021/05/30 02:12:29;;;;;;;2.42;1.90;;;;;;;14.78;65.01;98857.95;1698775;82;20920;-56
2021/05/30 02:14:57;;;;;;;2.22;1.92;;;;;;;14.62;65.43;98855.77;1708543;82;21618;-57
2021/05/30 02:17:26;;;;;;;1.80;1.70;;;;;;;14.48;65.83;98858.67;1697638;82;21055;-57
2021/05/30 02:19:52;;;;;;;3.90;2.05;;;;;;;14.46;66.12;98861.58;1684983;84;21033;-60
2021/05/30 02:22:19;;;;;;;2.85;1.85;;;;;;;14.49;66.27;98861.16;1680084;84;21571;-60
2021/05/30 02:24:46;;;;;;;1.62;1.52;;;;;;;14.58;66.30;98865.75;1688980;84;20986;-60
2021/05/30 02:27:12;;;;;;;1.82;1.72;;;;;;;14.61;66.28;98867.50;1684842;84;20907;-58
2021/05/30 02:29:42;;;;;;;1.95;1.82;;;;;;;14.65;66.25;98866.57;1691306;84;21466;-58
2021/05/30 02:32:11;;;;;;;1.70;1.60;;;;;;;14.71;66.11;98859.84;1684960;84;21729;-57
2021/05/30 02:34:41;;;;;;;1.90;1.80;;;;;;;14.71;66.04;98865.20;1708051;84;21639;-61
2021/05/30 02:37:07;;;;;;;1.80;1.70;;;;;;;14.74;66.11;98868.80;1708111;84;21010;-58
2021/05/30 02:39:33;;;;;;;1.80;1.70;;;;;;;14.84;66.09;98862.98;1705728;84;20911;-58
2021/05/30 02:42:00;;;;;;;2.30;2.20;;;;;;;14.92;65.81;98864.08;1707822;84;21588;-59
2021/05/30 02:44:26;;;;;;;6.70;2.50;;;;;;;14.93;65.67;98869.76;1698183;84;21043;-58
2021/05/30 02:46:52;;;;;;;3.52;2.90;;;;;;;14.90;65.70;98866.67;1680477;84;20915;-58
2021/05/30 02:49:19;;;;;;;3.30;3.00;;;;;;;14.90;65.71;98872.03;1683055;84;21520;-60
2021/05/30 02:51:45;;;;;;;2.00;1.90;;;;;;;14.92;65.71;98871.29;1680446;84;21077;-57
2021/05/30 02:54:12;;;;;;;2.27;2.08;;;;;;;14.97;65.69;98878.17;1681087;84;20958;-59
2021/05/30 02:56:40;;;;;;;2.02;1.72;;;;;;;15.00;65.66;98873.22;1688119;84;20986;-58
2021/05/30 02:59:07;;;;;;;2.25;1.75;;;;;;;15.03;65.57;98873.31;1688072;84;21026;-59
2021/05/30 03:01:33;;;;;;;2.10;2.00;;;;;;;15.04;65.56;98875.80;1699324;84;21484;-60
2021/05/30 03:04:00;;;;;;;1.77;1.67;;;;;;;15.04;65.54;98872.29;1702338;84;21667;-59
2021/05/30 03:06:26;;;;;;;1.67;1.57;;;;;;;15.06;65.60;98872.89;1702260;84;20946;-59
2021/05/30 03:08:52;;;;;;;2.45;2.12;;;;;;;15.07;65.61;98875.34;1702817;84;21061;-58
2021/05/30 03:11:20;;;;;;;5.80;2.17;;;;;;;15.12;65.53;98870.16;1669945;85;21568;-59
2021/05/30 03:13:48;;;;;;;2.20;2.00;;;;;;;15.12;65.52;98868.82;1702287;84;20986;-58
2021/05/30 03:16:15;;;;;;;2.92;2.60;;;;;;;15.11;65.55;98871.22;1698327;84;21092;-57
2021/05/30 03:18:41;;;;;;;4.08;3.00;;;;;;;15.12;65.62;98871.50;1691188;84;21090;-60
2021/05/30 03:21:08;;;;;;;3.10;2.75;;;;;;;15.15;65.59;98866.23;1678483;84;21157;-58
2021/05/30 03:23:35;;;;;;;2.45;2.22;;;;;;;15.08;65.80;98865.45;1682884;84;21002;-60
2021/05/30 03:26:01;;;;;;;2.02;1.87;;;;;;;15.03;66.05;98865.27;1686727;84;20968;-57
2021/05/30 03:28:28;;;;;;;2.47;2.27;;;;;;;15.02;66.22;98862.28;1681458;84;21029;-57
2021/05/30 03:30:54;;;;;;;2.17;2.05;;;;;;;15.04;66.27;98864.25;1676706;84;21545;-59
2021/05/30 03:33:20;;;;;;;2.30;2.10;;;;;;;15.04;66.29;98861.57;1683680;84;21678;-58
2021/05/30 03:35:47;;;;;;;2.58;2.08;;;;;;;15.02;66.44;98862.28;1692348;84;21561;-57
2021/05/30 03:38:16;;;;;;;2.62;2.42;;;;;;;15.02;66.58;98860.94;1692394;84;21075;-57
2021/05/30 03:40:47;;;;;;;2.62;2.42;;;;;;;15.06;66.58;98864.34;1690751;84;20899;-57
2021/05/30 03:43:14;;;;;;;2.92;2.72;;;;;;;15.07;66.64;98867.30;1692455;84;20936;-59
2021/05/30 03:45:40;;;;;;;3.27;2.95;;;;;;;15.11;66.64;98865.86;1692561;84;21685;-57
2021/05/30 03:48:09;;;;;;;3.00;2.80;;;;;;;15.15;66.62;98867.57;1692272;84;21035;-57
2021/05/30 03:50:35;;;;;;;4.70;3.00;;;;;;;15.19;66.57;98873.66;1690380;84;20927;-57
2021/05/30 03:53:02;;;;;;;2.70;2.50;;;;;;;15.24;66.44;98869.81;1692490;84;21488;-57
2021/05/30 03:55:28;;;;;;;2.87;2.67;;;;;;;15.28;66.29;98872.86;1689614;84;21019;-57
2021/05/30 03:57:55;;;;;;;3.10;2.90;;;;;;;15.30;66.24;98870.27;1692712;84;21083;-58
2021/05/30 04:00:22;;;;;;;2.80;2.60;;;;;;;15.30;66.25;98873.49;1692124;84;20999;-57
2021/05/30 04:02:49;;;;;;;3.17;2.90;;;;;;;15.33;66.21;98871.70;1692370;84;21560;-57
2021/05/30 04:05:16;;;;;;;2.83;2.62;;;;;;;15.35;66.12;98870.98;1678176;84;21034;-57
2021/05/30 04:07:43;;;;;;;2.10;1.90;;;;;;;15.35;66.09;98870.98;1668103;84;20977;-57
2021/05/30 04:10:11;;;;;;;2.85;2.40;;;;;;;15.33;66.09;98873.86;1679719;84;21100;-58
2021/05/30 04:12:42;;;;;;;2.65;2.50;;;;;;;15.30;65.99;98872.16;1671436;84;21021;-57
2021/05/30 04:15:12;;;;;;;3.10;2.90;;;;;;;15.28;65.97;98884.92;1668138;84;21077;-58
2021/05/30 04:17:41;;;;;;;2.42;2.17;;;;;;;15.26;66.03;98891.02;1671593;84;21047;-58
2021/05/30 04:20:10;;;;;;;2.60;2.40;;;;;;;15.20;66.11;98889.22;1669824;84;21039;-58
2021/05/30 04:22:36;;;;;;;2.83;2.35;;;;;;;15.18;66.29;98896.62;1670660;84;21106;-62
2021/05/30 04:25:04;;;;;;;2.70;2.50;;;;;;;15.17;66.40;98892.31;1681335;84;21568;-58
2021/05/30 04:27:31;;;;;;;2.40;2.30;;;;;;;15.13;66.55;98892.42;1680809;84;20932;-59
2021/05/30 04:29:57;;;;;;;3.10;1.82;;;;;;;15.13;66.67;98891.08;1671562;84;21631;-60
2021/05/30 04:32:24;;;;;;;2.77;2.00;;;;;;;15.07;66.89;98894.64;1688180;84;21094;-58
2021/05/30 04:34:51;;;;;;;2.47;2.12;;;;;;;15.04;67.05;98893.72;1689526;84;21102;-58
2021/05/30 04:37:17;;;;;;;1.90;1.80;;;;;;;15.02;67.25;98894.42;1686392;84;21015;-58
2021/05/30 04:39:44;;;;;;;3.52;2.17;;;;;;;14.95;67.42;98892.30;1687970;84;21046;-58
2021/05/30 04:42:10;;;;;;;1.90;1.80;;;;;;;14.94;67.80;98897.36;1669628;84;21004;-58
2021/05/30 04:44:37;;;;;;;3.05;2.15;;;;;;;14.89;67.95;98893.16;1671141;84;20979;-58
2021/05/30 04:47:04;;;;;;;3.02;1.90;;;;;;;14.87;68.10;98895.20;1670721;84;21508;-58
2021/05/30 04:49:31;;;;;;;10.32;2.50;;;;;;;14.84;68.29;98890.59;1666230;84;20987;-57
2021/05/30 04:51:58;;;;;;;2.00;1.90;;;;;;;14.81;68.58;98891.00;1683450;84;20959;-57
2021/05/30 04:54:24;;;;;;;2.40;2.05;;;;;;;14.77;68.80;98893.81;1674381;84;21027;-59
2021/05/30 04:56:52;;;;;;;3.05;2.83;;;;;;;14.86;68.71;98886.89;1676783;84;21619;-58
2021/05/30 04:59:19;;;;;;;2.87;2.67;;;;;;;14.83;68.81;98894.28;1680788;84;21647;-58
2021/05/30 05:01:45;;;;;;;2.42;2.00;;;;;;;14.82;68.96;98895.84;1667137;84;21047;-58
2021/05/30 05:04:11;;;;;;;2.05;1.95;;;;;;;14.82;69.06;98889.16;1667103;84;21079;-59
2021/05/30 05:06:38;;;;;;;1.90;1.80;;;;;;;14.88;68.98;98890.17;1672377;84;21058;-58
2021/05/30 05:09:05;;;;;;;2.30;2.20;;;;;;;14.92;68.90;98888.19;1664831;84;21580;-58
2021/05/30 05:11:33;;;;;;;2.00;1.80;;;;;;;14.95;68.87;98892.30;1672104;84;21074;-58
2021/05/30 05:13:59;;;;;;;1.95;1.77;;;;;;;14.98;68.89;98891.88;1676074;84;20872;-57
2021/05/30 05:16:26;;;;;;;1.85;1.75;;;;;;;15.04;68.83;98893.20;1669899;84;21006;-58
2021/05/30 05:18:52;;;;;;;2.02;1.92;;;;;;;15.02;68.82;98892.57;1669609;84;21011;-59
2021/05/30 05:21:19;;;;;;;1.95;1.82;;;;;;;14.99;68.90;98890.31;1696695;84;20927;-59
2021/05/30 05:23:47;;;;;;;2.30;2.10;;;;;;;15.01;68.85;98888.27;1683056;84;21018;-60
2021/05/30 05:26:14;;;;;;;3.50;3.20;;;;;;;15.01;68.85;98885.59;1703778;84;21587;-58
2021/05/30 05:28:40;;;;;;;2.67;2.47;;;;;;;15.03;68.88;98889.38;1688665;84;20938;-57
2021/05/30 05:31:07;;;;;;;2.15;2.05;;;;;;;15.09;68.83;98893.90;1689447;84;21582;-56
2021/05/30 05:33:35;;;;;;;2.22;2.12;;;;;;;15.13;68.73;98893.25;1688670;84;21643;-60
2021/05/30 05:36:01;;;;;;;2.45;2.25;;;;;;;15.10;68.78;98897.69;1695662;84;21807;-58
2021/05/30 05:38:28;;;;;;;1.87;1.77;;;;;;;15.08;68.87;98902.45;1704877;84;20967;-57
2021/05/30 05:40:54;;;;;;;2.20;2.00;;;;;;;15.08;68.89;98898.94;1707584;84;21017;-59
2021/05/30 05:43:21;;;;;;;2.77;2.00;;;;;;;15.04;69.06;98892.38;1706448;84;21030;-58
2021/05/30 05:45:47;;;;;;;2.05;1.95;;;;;;;14.99;69.27;98894.88;1701448;84;20975;-62
2021/05/30 05:48:15;;;;;;;1.82;1.72;;;;;;;14.89;69.52;98892.62;1693847;84;21049;-63
2021/05/30 05:50:43;;;;;;;2.42;2.10;;;;;;;14.90;69.66;98894.28;1708011;84;20942;-62
2021/05/30 05:53:10;;;;;;;3.10;2.17;;;;;;;14.90;69.71;98897.47;1692799;84;20954;-59
2021/05/30 05:55:36;;;;;;;2.10;2.00;;;;;;;14.88;69.78;98898.20;1688804;84;21161;-58
2021/05/30 05:58:02;;;;;;;2.67;2.47;;;;;;;14.84;69.92;98899.96;1706058;84;20903;-60
2021/05/30 06:00:31;;;;;;;3.67;3.37;;;;;;;14.83;70.01;98897.50;1707274;84;21857;-63
2021/05/30 06:02:57;;;;;;;3.45;2.60;;;;;;;14.79;70.21;98902.96;1691867;84;22048;-62
2021/05/30 06:05:24;;;;;;;6.85;2.20;;;;;;;14.87;70.27;98905.92;1694577;84;21066;-58
2021/05/30 06:07:55;;;;;;;2.85;2.58;;;;;;;14.94;70.28;98901.38;1699189;84;20994;-60
2021/05/30 06:10:27;;;;;;;2.47;2.27;;;;;;;15.02;70.24;98903.28;1703334;84;21563;-60
2021/05/30 06:12:57;;;;;;;2.05;1.95;;;;;;;15.08;70.29;98910.99;1698191;84;21096;-55
2021/05/30 06:15:26;;;;;;;2.30;1.90;;;;;;;15.15;70.31;98910.44;1679972;84;20994;-66
2021/05/30 06:17:58;;;;;;;2.40;2.20;;;;;;;15.15;70.33;98915.80;1680074;84;20965;-62
2021/05/30 06:20:25;;;;;;;2.15;1.98;;;;;;;15.18;70.27;98916.72;1685089;82;21003;-63
2021/05/30 06:22:54;;;;;;;2.27;1.95;;;;;;;15.16;70.67;98914.77;1689392;82;20987;-61
2021/05/30 06:25:21;;;;;;;2.17;1.90;;;;;;;15.12;71.22;98918.38;1688948;83;21110;-63
2021/05/30 06:27:48;;;;;;;2.10;1.90;;;;;;;15.10;71.31;98915.61;1689082;82;21119;-62
2021/05/30 06:30:18;;;;;;;2.25;2.02;;;;;;;15.11;71.27;98919.44;1706640;83;20992;-65
2021/05/30 06:32:45;;;;;;;1.52;1.42;;;;;;;15.15;71.15;98915.80;1714966;83;21047;-64
2021/05/30 06:35:11;;;;;;;1.62;1.52;;;;;;;15.19;71.10;98921.88;1714655;82;20940;-65
2021/05/30 06:37:38;;;;;;;1.45;1.35;;;;;;;15.22;71.07;98920.63;1709702;82;21111;-63
2021/05/30 06:40:06;;;;;;;1.80;1.70;;;;;;;15.21;71.41;98920.31;1710644;82;21052;-66
2021/05/30 06:42:32;;;;;;;1.85;1.60;;;;;;;15.25;71.17;98923.69;1703995;82;20932;-68
2021/05/30 06:44:59;;;;;;;1.70;1.60;;;;;;;15.31;71.04;98920.67;1710835;82;20979;-57
2021/05/30 06:47:25;;;;;;;2.85;1.85;;;;;;;15.37;71.03;98928.70;1704312;82;21087;-68
2021/05/30 06:49:53;;;;;;;1.95;1.60;;;;;;;15.42;70.78;98920.00;1717382;83;21338;-70
2021/05/30 06:52:19;;;;;;;1.80;1.70;;;;;;;15.47;70.74;98921.55;1711125;82;20980;-72
2021/05/30 06:54:47;;;;;;;2.00;1.90;;;;;;;15.56;70.63;98916.26;1705777;83;20984;-70
2021/05/30 06:57:13;;;;;;;1.27;1.25;;;;;;;15.63;70.37;98921.05;1688993;83;21008;-68
2021/05/30 06:59:40;;;;;;;1.70;1.60;;;;;;;15.74;70.22;98912.83;1711344;83;21056;-65
2021/05/30 07:02:07;;;;;;;1.75;1.50;;;;;;;15.84;69.88;98916.69;1714645;83;21093;-68
2021/05/30 07:04:34;;;;;;;1.57;1.40;;;;;;;15.94;69.74;98918.87;1712936;83;21577;-70
2021/05/30 07:07:01;;;;;;;1.30;1.20;;;;;;;16.05;69.30;98922.20;1715735;83;21589;-73
2021/05/30 07:09:28;;;;;;;1.80;1.70;;;;;;;16.10;68.77;98923.70;1718014;82;21051;-70
2021/05/30 07:11:55;;;;;;;1.60;1.50;;;;;;;16.16;68.46;98927.37;1717356;83;21001;-66
2021/05/30 07:14:21;;;;;;;1.90;1.80;;;;;;;16.20;68.26;98924.55;1711609;83;21076;-68
2021/05/30 07:16:47;;;;;;;1.98;1.87;;;;;;;16.27;68.14;98919.96;1712506;83;21561;-68
2021/05/30 07:19:14;;;;;;;2.67;2.50;;;;;;;16.31;68.03;98923.83;1714478;83;21422;-66
2021/05/30 07:21:40;;;;;;;3.08;2.87;;;;;;;16.37;68.10;98925.10;1718055;83;21007;-66
2021/05/30 07:24:07;;;;;;;3.85;3.62;;;;;;;16.42;67.98;98924.46;1721142;83;21071;-63
2021/05/30 07:26:37;;;;;;;3.40;3.20;;;;;;;16.43;67.74;98923.41;1720744;81;21844;-62
2021/05/30 07:29:02;;;;;;;2.67;2.47;;;;;;;16.42;67.43;98921.78;1722021;81;21039;-56
2021/05/30 07:31:29;;;;;;;2.45;2.08;;;;;;;16.41;67.27;98928.18;1716601;83;21530;-67
2021/05/30 07:33:56;;;;;;;1.65;1.55;;;;;;;16.31;67.03;98926.52;1719755;83;21597;-63
2021/05/30 07:36:24;;;;;;;1.85;1.75;;;;;;;16.25;67.29;98928.73;1721762;83;20979;-63
2021/05/30 07:38:52;;;;;;;2.30;1.70;;;;;;;16.26;67.55;98931.21;1704332;82;21039;-53
2021/05/30 07:41:19;;;;;;;1.70;1.60;;;;;;;16.24;67.48;98933.81;1693712;83;21094;-59
2021/05/30 07:43:46;;;;;;;1.45;1.30;;;;;;;16.22;67.46;98933.19;1693757;83;21062;-59
2021/05/30 07:46:12;;;;;;;1.15;1.12;;;;;;;16.20;67.58;98929.91;1693820;83;20959;-59
2021/05/30 07:48:40;;;;;;;1.45;1.35;;;;;;;16.24;67.68;98936.50;1703992;81;20900;-58
2021/05/30 07:51:06;;;;;;;1.90;1.30;;;;;;;16.25;67.83;98930.07;1721344;81;21092;-59
2021/05/30 07:53:33;;;;;;;4.55;1.00;;;;;;;16.33;67.83;98927.11;1702073;83;20972;-60
2021/05/30 07:56:00;;;;;;;1.82;1.10;;;;;;;16.46;67.79;98925.13;1699531;81;21546;-60
2021/05/30 07:58:26;;;;;;;2.83;1.10;;;;;;;16.63;67.75;98926.77;1709624;83;21086;-63
2021/05/30 08:00:52;;;;;;;1.52;1.00;;;;;;;16.77;67.42;98928.25;1722800;83;20992;-60
2021/05/30 08:03:21;;;;;;;1.15;1.15;;;;;;;16.80;67.07;98935.88;1715086;81;21697;-63
2021/05/30 08:05:49;;;;;;;1.37;1.30;;;;;;;16.76;66.91;98933.86;1718901;83;20987;-63
2021/05/30 08:08:17;;;;;;;1.10;1.00;;;;;;;16.61;66.94;98940.40;1714585;83;21525;-62
2021/05/30 08:10:44;;;;;;;1.40;1.30;;;;;;;16.48;66.84;98936.47;1718743;83;21552;-62
2021/05/30 08:13:11;;;;;;;2.95;2.75;;;;;;;16.34;67.02;98936.81;1715231;83;21612;-59
2021/05/30 08:15:37;;;;;;;3.83;1.57;;;;;;;16.24;67.30;98944.00;1711215;81;21055;-61
2021/05/30 08:18:04;;;;;;;1.30;1.20;;;;;;;16.15;67.51;98944.51;1710360;83;20995;-61
2021/05/30 08:20:31;;;;;;;1.60;1.32;;;;;;;16.11;67.89;98948.68;1700923;82;21639;-64
2021/05/30 08:22:57;;;;;;;0.85;0.85;;;;;;;16.06;68.07;98946.11;1697887;82;21571;-60
2021/05/30 08:25:24;;;;;;;1.65;1.10;;;;;;;16.05;68.35;98944.48;1697750;82;21044;-59
2021/05/30 08:27:51;;;;;;;1.40;1.30;;;;;;;16.06;68.53;98946.11;1702861;82;21651;-62
2021/05/30 08:30:19;;;;;;;1.27;1.10;;;;;;;16.02;68.69;98947.60;1698858;83;21106;-60
2021/05/30 08:32:46;;;;;;;1.60;1.12;;;;;;;15.97;68.84;98948.78;1706287;82;20996;-62
2021/05/30 08:35:13;;;;;;;1.10;1.10;;;;;;;16.00;68.81;98951.55;1704731;83;21003;-60
2021/05/30 08:37:43;;;;;;;1.65;1.55;;;;;;;16.08;68.72;98946.42;1697479;82;20991;-60
2021/05/30 08:40:12;;;;;;;1.95;1.85;;;;;;;16.13;68.86;98950.10;1705838;82;21058;-59
2021/05/30 08:42:38;;;;;;;1.45;1.35;;;;;;;16.14;68.86;98952.27;1708858;83;20991;-61
2021/05/30 08:45:08;;;;;;;1.65;1.30;;;;;;;16.17;68.92;98958.52;1704540;83;21103;-61
2021/05/30 08:47:34;;;;;;;1.47;1.37;;;;;;;16.21;68.87;98955.20;1699733;83;21047;-60
2021/05/30 08:50:01;;;;;;;1.40;1.30;;;;;;;16.22;68.78;98954.66;1701857;83;21011;-61
2021/05/30 08:52:27;;;;;;;0.95;0.95;;;;;;;16.22;68.87;98953.31;1701351;82;21150;-61
2021/05/30 08:54:55;;;;;;;1.20;1.20;;;;;;;16.24;69.02;98955.28;1696852;83;21370;-61
2021/05/30 08:57:22;;;;;;;1.40;1.30;;;;;;;16.28;69.17;98953.28;1696775;83;21573;-62
2021/05/30 08:59:57;;;;;;;1.30;1.20;;;;;;;16.35;68.97;98957.23;1696677;82;21066;-61
2021/05/30 09:02:23;;;;;;;1.22;1.22;;;;;;;16.33;68.77;98960.15;1696965;82;21596;-61
2021/05/30 09:04:58;;;;;;;3.37;1.72;;;;;;;16.33;68.73;98960.66;1696891;82;21158;-63
2021/05/30 09:07:44;;;;;;;1.30;1.20;;;;;;;16.31;68.99;98965.44;1704877;82;21596;-63
2021/05/30 09:10:23;;;;;;;1.32;1.22;;;;;;;16.33;69.21;98968.20;1713009;82;21114;-61
2021/05/30 09:12:48;;;;;;;1.57;1.37;;;;;;;16.35;69.31;98970.66;1712211;82;21007;-65
2021/05/30 09:15:48;;;;;;;1.65;1.55;;;;;;;16.34;69.78;98975.23;1650283;83;21122;-60
2021/05/30 09:18:15;;;;;;;1.75;1.65;;;;;;;16.28;70.16;98972.06;1713413;83;20976;-62
2021/05/30 09:20:59;;;;;;;1.87;1.77;;;;;;;16.25;70.43;98978.38;1716242;83;21502;-64
2021/05/30 09:23:37;;;;;;;1.72;1.62;;;;;;;16.20;70.90;98976.36;1722174;81;21059;-62
2021/05/30 09:26:19;;;;;;;1.40;1.30;;;;;;;16.16;71.45;98975.68;1718991;83;21067;-60
2021/05/30 09:29:04;;;;;;;1.25;1.15;;;;;;;16.05;71.55;98980.71;1719257;83;21091;-60
2021/05/30 09:31:33;;;;;;;1.62;1.52;;;;;;;16.04;71.60;98981.73;1715955;83;21676;-60
2021/05/30 09:33:59;;;;;;;2.00;1.45;;;;;;;16.08;71.63;98981.30;1719601;83;20963;-60
2021/05/30 09:36:27;;;;;;;1.47;1.20;;;;;;;16.10;71.46;98986.76;1668897;85;21042;-58
2021/05/30 09:39:04;;;;;;;1.70;1.60;;;;;;;16.07;71.48;98981.82;1691617;84;21033;-55
2021/05/30 09:41:31;;;;;;;1.50;1.40;;;;;;;16.12;71.49;98985.19;1720242;82;21501;-58
2021/05/30 09:43:57;;;;;;;1.80;1.30;;;;;;;16.17;71.49;98990.20;1718982;81;21173;-60
2021/05/30 09:46:33;;;;;;;2.67;1.37;;;;;;;16.22;71.34;98990.38;1721194;83;20980;-62
2021/05/30 09:49:00;;;;;;;3.20;1.20;;;;;;;16.27;70.82;98983.83;1715007;83;20912;-61
2021/05/30 09:51:40;;;;;;;2.33;1.20;;;;;;;16.31;70.58;98986.39;1717493;81;21018;-64
2021/05/30 09:54:17;;;;;;;3.42;1.10;;;;;;;16.32;70.28;98985.88;1714504;81;21644;-59
2021/05/30 09:56:48;;;;;;;2.02;1.27;;;;;;;16.33;69.89;98986.16;1719639;83;21135;-61
2021/05/30 09:59:17;;;;;;;6.85;1.40;;;;;;;16.36;69.67;98989.76;1693230;81;21524;-62
2021/05/30 10:02:05;;;;;;;2.80;1.15;;;;;;;16.40;69.56;98987.75;1720102;83;20988;-60
2021/05/30 10:04:34;;;;;;;4.80;1.10;;;;;;;16.44;69.37;98988.97;1715879;82;21079;-61
2021/05/30 10:07:03;;;;;;;3.02;1.22;;;;;;;16.47;69.31;98987.70;1693756;83;21481;-61
2021/05/30 10:09:30;;;;;;;4.75;1.30;;;;;;;16.49;69.21;98992.33;1693790;83;21027;-63
2021/05/30 10:11:57;;;;;;;6.15;2.22;;;;;;;16.49;69.20;98986.96;1693671;82;21102;-59
2021/05/30 10:14:25;;;;;;;2.62;1.70;;;;;;;16.50;69.27;98991.30;1693796;83;20996;-62
2021/05/30 10:16:51;;;;;;;3.17;1.20;;;;;;;16.46;69.50;98990.08;1693753;83;21079;-62
2021/05/30 10:19:45;;;;;;;5.25;1.57;;;;;;;16.47;69.71;98993.08;1667642;86;21005;-61
2021/05/30 10:22:12;;;;;;;2.92;1.20;;;;;;;16.54;69.68;98993.87;1711908;81;21154;-61
2021/05/30 10:24:40;;;;;;;2.22;1.50;;;;;;;16.55;69.79;98995.52;1698130;83;21652;-60
2021/05/30 10:27:19;;;;;;;1.62;1.20;;;;;;;16.62;69.75;98997.62;1693833;83;21078;-61
2021/05/30 10:30:13;;;;;;;11.48;6.25;;;;;;;16.64;69.62;98995.02;1718182;83;20907;-64
2021/05/30 10:32:46;;;;;;;5.33;3.52;;;;;;;16.71;69.61;98995.48;1708423;83;20975;-62
2021/05/30 10:35:25;;;;;;;10.32;2.40;;;;;;;16.75;69.49;98996.67;1693725;82;21104;-61
2021/05/30 10:37:57;;;;;;;3.90;1.67;;;;;;;16.73;69.42;98995.56;1693930;82;21035;-62
2021/05/30 10:40:27;;;;;;;2.62;1.45;;;;;;;16.75;69.43;99003.38;1700016;82;21045;-61
2021/05/30 10:43:14;;;;;;;1.85;1.65;;;;;;;16.77;69.36;99002.63;1693543;83;21015;-63
2021/05/30 10:45:53;;;;;;;5.97;2.58;;;;;;;16.77;69.53;99003.98;1694887;83;21624;-60
2021/05/30 10:48:20;;;;;;;6.70;4.22;;;;;;;16.84;69.60;99010.13;1717477;83;21647;-60
2021/05/30 10:53:46;;;;;;;5.17;1.70;;;;;;;16.93;69.50;99014.16;1696920;81;21043;-62
2021/05/30 10:56:23;;;;;;;5.42;2.50;;;;;;;16.85;69.56;99009.89;1697900;82;20943;-62
2021/05/30 10:59:15;;;;;;;4.28;2.20;;;;;;;16.89;69.64;99012.45;1700855;83;21091;-62
2021/05/30 11:01:44;;;;;;;1.80;1.60;;;;;;;16.96;69.46;99013.20;1709317;81;21095;-62
2021/05/30 11:04:29;;;;;;;2.17;1.75;;;;;;;16.99;69.40;99008.73;1704335;82;20952;-60
2021/05/30 11:07:07;;;;;;;1.87;1.32;;;;;;;17.02;69.37;99011.50;1709719;82;21505;-59
2021/05/30 11:09:58;;;;;;;1.30;1.20;;;;;;;17.00;68.97;99012.22;1707445;83;20971;-62
2021/05/30 11:12:28;;;;;;;1.87;1.40;;;;;;;16.96;69.18;99006.48;1703238;83;20920;-61
2021/05/30 11:15:19;;;;;;;1.52;1.30;;;;;;;17.04;69.14;99006.20;1700006;81;21084;-64
2021/05/30 11:17:50;;;;;;;1.50;1.40;;;;;;;17.09;69.13;99000.97;1698170;82;21011;-56
2021/05/30 11:20:37;;;;;;;1.30;1.20;;;;;;;17.12;69.07;98999.70;1698065;81;21007;-58
2021/05/30 11:23:10;;;;;;;1.62;1.17;;;;;;;17.18;68.80;98994.23;1697406;82;21166;-59
2021/05/30 11:25:45;;;;;;;1.05;0.40;;;;;;;17.17;68.79;98995.30;1688510;82;21086;-56
2021/05/30 11:28:13;;;;;;;0.57;0.55;;;;;;;17.03;63.46;98992.97;1688551;82;21088;-64
2021/05/30 11:30:43;;;;;;;0.70;0.50;;;;;;;16.86;62.55;98991.41;1696369;83;20984;-62
2021/05/30 11:33:17;;;;;;;0.50;0.50;;;;;;;16.84;63.73;98995.36;1717313;82;21613;-57
2021/05/30 11:35:44;;;;;;;0.50;0.50;;;;;;;16.89;64.13;98988.28;1717526;82;20881;-55
2021/05/30 11:38:10;;;;;;;0.35;0.35;;;;;;;16.93;62.91;98992.15;1705829;82;21075;-60
2021/05/30 11:40:38;;;;;;;0.62;0.60;;;;;;;16.88;62.95;98987.97;1696235;82;21643;-62
2021/05/30 11:43:16;;;;;;;0.50;0.50;;;;;;;16.84;62.06;98997.50;1696432;82;20917;-62
2021/05/30 11:45:46;;;;;;;0.35;0.30;;;;;;;16.81;62.72;98997.14;1695161;83;20944;-60